createdAt,value
2022-08-24T00:00:49.749Z,9.35
2022-08-24T00:05:51.715Z,10.05
2022-08-24T00:10:53.897Z,12.05
2022-08-24T00:15:56.234Z,11.63
2022-08-24T00:20:58.054Z,10.23
2022-08-24T00:25:59.976Z,10.43
2022-08-24T00:31:02.563Z,10.90
2022-08-24T00:36:05.182Z,11.45
2022-08-24T00:41:07.928Z,11.27
2022-08-24T00:46:21.657Z,11.05
2022-08-24T00:51:33.686Z,11.15
2022-08-24T00:56:43.937Z,10.40
2022-08-24T01:01:47.623Z,10.30
2022-08-24T01:06:50.087Z,11.20
2022-08-24T01:11:52.518Z,11.23
2022-08-24T01:17:12.928Z,10.63
2022-08-24T01:22:21.045Z,11.70
2022-08-24T01:27:27.728Z,10.63
2022-08-24T01:32:30.103Z,12.02
2022-08-24T01:37:33.155Z,11.15
2022-08-24T01:42:35.489Z,10.45
2022-08-24T01:47:37.318Z,10.32
2022-08-24T01:53:03.897Z,11.20
2022-08-24T01:58:04.052Z,11.70
2022-08-24T02:03:06.473Z,10.63
2022-08-24T02:08:08.864Z,12.85
2022-08-24T02:13:10.828Z,12.35
2022-08-24T02:18:15.396Z,11.30
2022-08-24T02:23:18.809Z,11.13
2022-08-24T02:28:20.842Z,10.95
2022-08-24T02:33:23.760Z,11.70
2022-08-24T02:38:26.053Z,11.00
2022-08-24T02:43:28.311Z,10.85
2022-08-24T02:48:30.744Z,13.98
2022-08-24T02:53:33.048Z,13.63
2022-08-24T02:58:35.054Z,12.27
2022-08-24T03:03:37.004Z,13.85
2022-08-24T03:08:39.637Z,11.90
2022-08-24T03:13:42.570Z,12.02
2022-08-24T03:18:44.773Z,12.18
2022-08-24T03:23:48.703Z,11.90
2022-08-24T03:28:51.199Z,11.93
2022-08-24T03:33:54.339Z,13.90
2022-08-24T03:38:56.743Z,13.50
2022-08-24T03:43:58.866Z,12.07
2022-08-24T03:49:01.022Z,12.73
2022-08-24T03:54:05.455Z,12.43
2022-08-24T03:59:09.879Z,12.45
2022-08-24T04:04:17.619Z,12.98
2022-08-24T04:09:19.642Z,12.50
2022-08-24T04:14:26.803Z,13.30
2022-08-24T04:19:34.923Z,12.70
2022-08-24T04:24:37.657Z,12.82
2022-08-24T04:29:39.561Z,12.88
2022-08-24T04:34:45.525Z,11.93
2022-08-24T04:39:47.524Z,11.60
2022-08-24T04:44:50.545Z,12.73
2022-08-24T04:49:55.995Z,12.43
2022-08-24T04:54:57.933Z,11.75
2022-08-24T05:00:03.243Z,12.80
2022-08-24T05:05:06.711Z,13.15
2022-08-24T05:10:11.238Z,13.45
2022-08-24T05:15:13.286Z,15.50
2022-08-24T05:20:19.189Z,13.48
2022-08-24T05:25:21.935Z,20.45
2022-08-24T05:30:24.380Z,12.55
2022-08-24T05:35:26.553Z,14.68
2022-08-24T05:40:30.522Z,18.35
2022-08-24T05:45:35.707Z,18.33
2022-08-24T05:50:37.613Z,14.70
2022-08-24T05:55:40.985Z,14.43
2022-08-24T06:00:46.029Z,17.52
2022-08-24T06:05:48.839Z,18.95
2022-08-24T06:10:50.897Z,17.23
2022-08-24T06:16:20.866Z,16.88
2022-08-24T06:21:28.207Z,14.32
2022-08-24T06:26:51.699Z,18.90
2022-08-24T06:31:56.153Z,17.90
2022-08-24T06:36:59.701Z,22.02
2022-08-24T06:42:01.711Z,18.55
2022-08-24T06:47:05.712Z,19.73
2022-08-24T06:52:07.817Z,19.38
2022-08-24T06:57:09.781Z,21.95
2022-08-24T07:02:15.860Z,16.88
2022-08-24T07:07:18.812Z,13.05
2022-08-24T07:12:21.066Z,12.60
2022-08-24T07:17:23.245Z,10.73
2022-08-24T07:22:27.959Z,10.52
2022-08-24T07:27:30.086Z,12.77
2022-08-24T07:32:32.539Z,10.95
2022-08-24T07:37:41.506Z,9.57
2022-08-24T07:42:49.981Z,11.57
2022-08-24T07:47:55.359Z,12.27
2022-08-24T07:53:15.088Z,13.98
2022-08-24T07:58:20.313Z,12.35
2022-08-24T08:03:25.055Z,11.60
2022-08-24T08:08:28.029Z,14.50
2022-08-24T08:13:31.660Z,12.50
2022-08-24T08:18:34.612Z,16.00
2022-08-24T08:23:59.646Z,15.75
2022-08-24T08:29:08.265Z,12.35
2022-08-24T08:34:13.220Z,12.93
2022-08-24T08:39:16.591Z,11.55
2022-08-24T08:44:35.559Z,8.35
2022-08-24T08:50:02.977Z,9.55
2022-08-24T08:55:32.155Z,13.73
2022-08-24T09:00:49.006Z,10.48
2022-08-24T09:05:58.779Z,9.00
2022-08-24T09:11:23.863Z,11.18
2022-08-24T09:16:36.206Z,9.85
2022-08-24T09:21:58.987Z,10.20
2022-08-24T09:27:25.525Z,9.95
2022-08-24T09:32:46.678Z,12.65
2022-08-24T09:38:01.038Z,9.27
2022-08-24T09:43:21.174Z,8.73
2022-08-24T09:48:24.225Z,10.57
2022-08-24T09:53:38.172Z,9.40
2022-08-24T09:59:01.813Z,10.15
2022-08-24T10:04:25.180Z,9.57
2022-08-24T10:09:52.025Z,11.20
2022-08-24T10:15:04.249Z,8.80
2022-08-24T10:20:29.484Z,12.13
2022-08-24T10:25:55.775Z,8.68
2022-08-24T10:31:10.948Z,10.30
2022-08-24T10:36:36.518Z,9.10
2022-08-24T10:42:02.910Z,9.25
2022-08-24T10:47:28.575Z,10.43
2022-08-24T10:52:42.716Z,9.07
2022-08-24T10:57:54.781Z,8.75
2022-08-24T11:03:10.449Z,7.30
2022-08-24T11:08:25.633Z,6.25
2022-08-24T11:13:27.514Z,6.55
2022-08-24T11:19:10.033Z,10.35
2022-08-24T11:24:26.866Z,8.65
2022-08-24T11:29:51.910Z,8.38
2022-08-24T11:34:53.926Z,8.55
2022-08-24T11:39:55.870Z,8.10
2022-08-24T11:45:14.348Z,7.88
2022-08-24T11:50:57.717Z,5.63
2022-08-24T11:56:31.580Z,7.40
2022-08-24T12:02:04.245Z,8.63
2022-08-24T12:07:09.271Z,8.15
2022-08-24T12:12:32.431Z,6.20
2022-08-24T12:17:55.882Z,6.40
2022-08-24T12:23:02.682Z,10.73
2022-08-24T12:28:05.707Z,8.65
2022-08-24T12:33:15.742Z,6.72
2022-08-24T12:38:25.326Z,8.38
2022-08-24T12:43:40.199Z,8.23
2022-08-24T12:49:04.378Z,8.40
2022-08-24T12:54:20.669Z,7.18
2022-08-24T12:59:43.383Z,6.93
2022-08-24T13:04:51.288Z,9.48
2022-08-24T13:09:53.399Z,6.85
2022-08-24T13:15:21.277Z,9.32
2022-08-24T13:20:28.870Z,8.77
2022-08-24T13:25:52.069Z,9.73
2022-08-24T13:30:54.164Z,8.20
2022-08-24T13:36:03.926Z,10.98
2022-08-24T13:41:08.881Z,8.00
2022-08-24T13:46:16.769Z,9.43
2022-08-24T13:51:20.714Z,9.27
2022-08-24T13:56:47.746Z,7.97
2022-08-24T14:02:25.908Z,8.45
2022-08-24T14:07:32.953Z,10.13
2022-08-24T14:12:41.846Z,8.77
2022-08-24T14:18:09.954Z,11.43
2022-08-24T14:23:17.837Z,10.02
2022-08-24T14:28:37.202Z,8.90
2022-08-24T14:33:48.642Z,8.00
2022-08-24T14:38:58.621Z,8.02
2022-08-24T14:44:14.244Z,7.65
2022-08-24T14:49:43.345Z,9.45
2022-08-24T14:55:01.951Z,9.07
2022-08-24T15:00:10.995Z,9.35
2022-08-24T15:05:41.665Z,10.10
2022-08-24T15:10:43.516Z,9.25
2022-08-24T15:16:06.328Z,10.52
2022-08-24T15:21:23.703Z,8.80
2022-08-24T15:27:04.520Z,8.15
2022-08-24T15:32:10.617Z,9.75
2022-08-24T15:37:46.255Z,8.77
2022-08-24T15:42:51.149Z,10.55
2022-08-24T15:47:54.715Z,8.40
2022-08-24T15:53:01.147Z,9.75
2022-08-24T15:58:41.292Z,10.40
2022-08-24T16:03:46.513Z,8.50
2022-08-24T16:09:02.503Z,8.60
2022-08-24T16:14:11.410Z,9.73
2022-08-24T16:19:26.974Z,8.82
2022-08-24T16:24:33.360Z,10.07
2022-08-24T16:29:38.162Z,9.00
2022-08-24T16:34:43.001Z,9.73
2022-08-24T16:39:47.645Z,9.93
2022-08-24T16:44:51.090Z,9.45
2022-08-24T16:49:52.989Z,9.25
2022-08-24T16:54:54.878Z,9.30
2022-08-24T16:59:57.056Z,9.10
2022-08-24T17:04:59.288Z,15.07
2022-08-24T17:10:04.084Z,9.48
2022-08-24T17:15:07.656Z,10.48
2022-08-24T17:20:11.135Z,8.65
2022-08-24T17:25:12.972Z,10.45
2022-08-24T17:30:18.663Z,9.00
2022-08-24T17:35:21.669Z,9.63
2022-08-24T17:40:25.457Z,9.70
2022-08-24T17:45:27.513Z,10.07
2022-08-24T17:50:29.396Z,11.15
2022-08-24T17:55:31.348Z,10.68
2022-08-24T18:00:33.318Z,12.43
2022-08-24T18:05:35.891Z,15.73
2022-08-24T18:10:37.737Z,15.35
2022-08-24T18:15:39.913Z,14.50
2022-08-24T18:20:42.037Z,15.40
2022-08-24T18:25:50.203Z,15.13
2022-08-24T18:30:52.348Z,14.73
2022-08-24T18:35:54.244Z,14.57
2022-08-24T18:41:01.889Z,14.82
2022-08-24T18:46:04.875Z,15.73
2022-08-24T18:51:06.975Z,14.13
2022-08-24T18:56:12.487Z,15.25
2022-08-24T19:01:14.854Z,16.27
2022-08-24T19:06:19.063Z,17.42
2022-08-24T19:11:23.683Z,16.42
2022-08-24T19:16:25.534Z,19.33
2022-08-24T19:21:30.408Z,18.38
2022-08-24T19:26:32.665Z,17.75
2022-08-24T19:31:34.854Z,19.50
2022-08-24T19:36:36.986Z,16.05
2022-08-24T19:41:43.268Z,16.40
2022-08-24T19:46:48.947Z,16.52
2022-08-24T19:51:51.423Z,16.73
2022-08-24T19:56:54.314Z,18.67
2022-08-24T20:01:56.254Z,16.58
2022-08-24T20:06:58.182Z,17.30
2022-08-24T20:12:00.027Z,17.73
2022-08-24T20:17:02.142Z,18.48
2022-08-24T20:22:05.133Z,20.38
2022-08-24T20:27:25.691Z,20.58
2022-08-24T20:32:29.457Z,21.35
2022-08-24T20:37:33.419Z,23.55
2022-08-24T20:42:35.300Z,29.40
2022-08-24T20:47:52.034Z,26.33
2022-08-24T20:52:54.116Z,25.00
2022-08-24T20:58:03.586Z,24.52
2022-08-24T21:03:05.503Z,27.13
2022-08-24T21:08:08.451Z,27.83
2022-08-24T21:13:11.080Z,23.73
2022-08-24T21:18:12.898Z,24.08
2022-08-24T21:23:14.775Z,22.88
2022-08-24T21:28:17.168Z,25.02
2022-08-24T21:33:37.365Z,26.05
2022-08-24T21:38:39.240Z,25.17
2022-08-24T21:43:47.108Z,27.42
2022-08-24T21:48:49.166Z,22.58
2022-08-24T21:53:51.133Z,23.70
2022-08-24T21:59:01.446Z,24.83
2022-08-24T22:04:03.499Z,23.95
2022-08-24T22:09:06.449Z,22.42
2022-08-24T22:14:08.380Z,21.27
2022-08-24T22:19:11.330Z,23.45
2022-08-24T22:24:13.429Z,20.33
2022-08-24T22:29:15.345Z,24.88
2022-08-24T22:34:20.778Z,22.90
2022-08-24T22:39:23.075Z,21.05
2022-08-24T22:44:25.742Z,21.48
2022-08-24T22:49:35.583Z,20.67
2022-08-24T22:54:39.502Z,21.98
2022-08-24T22:59:43.007Z,22.05
2022-08-24T23:04:48.182Z,21.10
2022-08-24T23:09:50.312Z,22.80
2022-08-24T23:14:52.728Z,23.50
2022-08-24T23:20:00.903Z,25.17
2022-08-24T23:25:04.621Z,29.35
2022-08-24T23:30:13.555Z,22.58
2022-08-24T23:35:15.431Z,25.55
2022-08-24T23:40:19.014Z,23.15
2022-08-24T23:45:28.037Z,25.92
2022-08-24T23:50:30.629Z,25.27
2022-08-24T23:55:32.413Z,25.77
